createdAt,value
2023-03-27T00:00:28.184Z,75.09
2023-03-27T00:01:30.676Z,74.96
2023-03-27T00:02:33.389Z,74.57
2023-03-27T00:03:36.648Z,74.48
2023-03-27T00:04:41.154Z,74.23
2023-03-27T00:05:45.911Z,74.78
2023-03-27T00:06:49.326Z,73.97
2023-03-27T00:07:52.812Z,73.81
2023-03-27T00:08:55.138Z,73.97
2023-03-27T00:09:57.496Z,72.60
2023-03-27T00:11:01.166Z,73.15
2023-03-27T00:12:03.842Z,71.91
2023-03-27T00:13:08.591Z,71.40
2023-03-27T00:14:11.731Z,71.31
2023-03-27T00:15:17.157Z,70.96
2023-03-27T00:16:21.896Z,70.61
2023-03-27T00:17:24.729Z,68.66
2023-03-27T00:18:28.285Z,68.40
2023-03-27T00:19:30.546Z,69.09
2023-03-27T00:20:37.484Z,68.24
2023-03-27T00:21:40.498Z,68.06
2023-03-27T00:22:43.403Z,68.21
2023-03-27T00:23:46.265Z,68.74
2023-03-27T00:24:48.466Z,68.41
2023-03-27T00:25:51.341Z,67.96
2023-03-27T00:26:54.859Z,69.01
2023-03-27T00:27:58.541Z,69.54
2023-03-27T00:29:00.932Z,68.74
2023-03-27T00:30:06.283Z,68.51
2023-03-27T00:31:13.831Z,67.98
2023-03-27T00:32:17.090Z,68.37
2023-03-27T00:33:19.507Z,67.70
2023-03-27T00:34:21.757Z,67.06
2023-03-27T00:35:26.195Z,66.71
2023-03-27T00:36:28.466Z,67.83
2023-03-27T00:37:31.561Z,68.95
2023-03-27T00:38:34.013Z,67.88
2023-03-27T00:39:36.425Z,68.23
2023-03-27T00:40:39.570Z,68.09
2023-03-27T00:41:41.969Z,68.59
2023-03-27T00:42:48.874Z,68.79
2023-03-27T00:43:54.485Z,68.32
2023-03-27T00:44:56.812Z,67.92
2023-03-27T00:46:03.566Z,66.59
2023-03-27T00:47:08.964Z,66.61
2023-03-27T00:48:11.228Z,66.70
2023-03-27T00:49:15.384Z,66.63
2023-03-27T00:50:22.415Z,65.71
2023-03-27T00:51:26.645Z,65.77
2023-03-27T00:52:31.450Z,66.63
2023-03-27T00:53:33.936Z,66.98
2023-03-27T00:54:39.072Z,66.18
2023-03-27T00:55:46.072Z,65.47
2023-03-27T00:56:49.985Z,65.48
2023-03-27T00:58:00.145Z,65.95
2023-03-27T00:59:06.276Z,65.90
2023-03-27T01:00:13.666Z,66.20
2023-03-27T01:01:17.401Z,65.45
2023-03-27T01:02:20.636Z,65.81
2023-03-27T01:03:27.023Z,66.81
2023-03-27T01:04:31.851Z,66.84
2023-03-27T01:05:36.495Z,66.31
2023-03-27T01:06:43.081Z,65.72
2023-03-27T01:08:00.052Z,66.19
2023-03-27T01:09:04.706Z,65.75
2023-03-27T01:10:08.810Z,67.01
2023-03-27T01:11:29.349Z,67.38
2023-03-27T01:13:14.216Z,67.85
2023-03-27T01:14:31.642Z,68.28
2023-03-27T01:15:51.763Z,67.97
2023-03-27T01:17:13.046Z,67.79
2023-03-27T01:18:42.392Z,68.13
2023-03-27T01:19:47.745Z,69.03
2023-03-27T01:21:08.333Z,69.11
2023-03-27T01:23:03.207Z,69.98
2023-03-27T01:24:20.458Z,68.93
2023-03-27T01:25:53.722Z,68.63
2023-03-27T01:27:01.677Z,69.26
2023-03-27T01:28:16.754Z,69.58
2023-03-27T01:29:38.716Z,69.40
2023-03-27T01:31:11.234Z,68.86
2023-03-27T01:32:32.130Z,68.39
2023-03-27T01:34:09.766Z,68.64
2023-03-27T01:35:28.531Z,67.95
2023-03-27T01:36:37.294Z,68.08
2023-03-27T01:37:56.668Z,67.93
2023-03-27T01:39:21.078Z,67.52
2023-03-27T01:40:40.062Z,67.87
2023-03-27T01:42:01.117Z,67.93
2023-03-27T01:43:25.191Z,68.37
2023-03-27T01:44:46.121Z,68.01
2023-03-27T01:45:52.738Z,68.66
2023-03-27T01:47:07.684Z,68.95
2023-03-27T01:48:37.097Z,68.00
2023-03-27T01:49:49.022Z,69.02
2023-03-27T01:50:54.115Z,68.99
2023-03-27T01:52:02.121Z,68.43
2023-03-27T01:53:39.908Z,69.23
2023-03-27T01:54:47.062Z,68.74
2023-03-27T01:55:58.420Z,68.95
2023-03-27T01:57:10.207Z,69.51
2023-03-27T01:58:23.286Z,67.77
2023-03-27T01:59:29.038Z,68.34
2023-03-27T02:00:51.689Z,68.88
2023-03-27T02:02:01.532Z,68.18
2023-03-27T02:03:16.563Z,68.01
2023-03-27T02:04:27.360Z,68.02
2023-03-27T02:05:37.130Z,68.11
2023-03-27T02:06:48.887Z,67.81
2023-03-27T02:07:56.908Z,66.53
2023-03-27T02:09:08.560Z,66.77
2023-03-27T02:10:15.743Z,66.49
2023-03-27T02:11:18.861Z,66.28
2023-03-27T02:12:29.842Z,65.76
2023-03-27T02:13:39.193Z,64.86
2023-03-27T02:14:56.882Z,64.80
2023-03-27T02:16:34.038Z,64.41
2023-03-27T02:17:41.940Z,64.33
2023-03-27T02:18:50.045Z,63.70
2023-03-27T02:20:00.529Z,63.68
2023-03-27T02:21:04.390Z,63.89
2023-03-27T02:22:08.073Z,63.93
2023-03-27T02:23:22.912Z,63.77
2023-03-27T02:24:25.306Z,62.95
2023-03-27T02:25:36.902Z,63.78
2023-03-27T02:26:39.582Z,63.83
2023-03-27T02:27:47.467Z,63.82
2023-03-27T02:29:10.242Z,63.95
2023-03-27T02:30:20.696Z,64.19
2023-03-27T02:31:41.801Z,64.75
2023-03-27T02:32:58.270Z,64.86
2023-03-27T02:34:34.500Z,65.13
2023-03-27T02:35:51.019Z,65.05
2023-03-27T02:37:19.535Z,64.83
2023-03-27T02:38:56.936Z,65.20
2023-03-27T02:40:28.626Z,64.85
2023-03-27T02:42:00.194Z,65.02
2023-03-27T02:43:12.994Z,64.57
2023-03-27T02:44:36.438Z,64.29
2023-03-27T02:46:15.949Z,64.59
2023-03-27T02:47:28.845Z,64.63
2023-03-27T02:48:39.590Z,64.66
2023-03-27T02:49:47.662Z,63.87
2023-03-27T02:50:59.350Z,63.85
2023-03-27T02:52:14.387Z,64.31
2023-03-27T02:53:22.153Z,64.06
2023-03-27T02:54:32.505Z,64.10
2023-03-27T02:55:41.726Z,63.40
2023-03-27T02:56:51.928Z,63.42
2023-03-27T02:58:17.188Z,63.24
2023-03-27T02:59:39.182Z,63.47
2023-03-27T03:00:48.918Z,63.44
2023-03-27T03:02:20.340Z,63.31
2023-03-27T03:03:53.826Z,63.04
2023-03-27T03:05:32.662Z,62.70
2023-03-27T03:06:35.734Z,61.91
2023-03-27T03:07:38.842Z,61.83
2023-03-27T03:08:41.343Z,62.08
2023-03-27T03:09:45.899Z,62.36
2023-03-27T03:10:48.624Z,61.98
2023-03-27T03:11:54.143Z,62.59
2023-03-27T03:12:57.265Z,62.46
2023-03-27T03:13:59.549Z,62.41
2023-03-27T03:15:01.753Z,62.28
2023-03-27T03:16:07.014Z,61.80
2023-03-27T03:17:09.274Z,61.97
2023-03-27T03:18:13.114Z,61.92
2023-03-27T03:19:15.503Z,62.10
2023-03-27T03:20:17.857Z,61.61
2023-03-27T03:21:20.181Z,61.20
2023-03-27T03:22:22.497Z,62.14
2023-03-27T03:23:24.964Z,62.09
2023-03-27T03:24:27.849Z,61.85
2023-03-27T03:25:31.402Z,62.22
2023-03-27T03:26:34.816Z,61.96
2023-03-27T03:27:37.875Z,61.63
2023-03-27T03:29:00.275Z,62.12
2023-03-27T03:30:09.860Z,62.69
2023-03-27T03:31:24.734Z,62.67
2023-03-27T03:32:30.471Z,63.20
2023-03-27T03:33:34.664Z,63.56
2023-03-27T03:34:37.137Z,62.96
2023-03-27T03:35:39.515Z,63.35
2023-03-27T03:36:55.148Z,62.85
2023-03-27T03:38:06.513Z,63.14
2023-03-27T03:39:20.075Z,61.91
2023-03-27T03:40:25.692Z,61.87
2023-03-27T03:41:32.158Z,62.24
2023-03-27T03:42:36.468Z,62.57
2023-03-27T03:43:39.459Z,62.19
2023-03-27T03:44:43.580Z,62.25
2023-03-27T03:45:54.577Z,62.72
2023-03-27T03:46:56.848Z,62.52
2023-03-27T03:47:59.117Z,62.55
2023-03-27T03:49:01.746Z,62.61
2023-03-27T03:50:05.292Z,62.46
2023-03-27T03:51:07.981Z,62.48
2023-03-27T03:52:10.514Z,62.29
2023-03-27T03:53:17.935Z,62.80
2023-03-27T03:54:20.360Z,62.78
2023-03-27T03:55:22.727Z,62.90
2023-03-27T03:56:26.154Z,62.68
2023-03-27T03:57:29.140Z,62.91
2023-03-27T03:58:39.647Z,62.20
2023-03-27T03:59:41.929Z,62.89
2023-03-27T04:01:05.057Z,62.61
2023-03-27T04:02:28.343Z,62.81
2023-03-27T04:03:36.365Z,62.00
2023-03-27T04:04:38.762Z,61.21
2023-03-27T04:05:45.603Z,61.28
2023-03-27T04:06:47.912Z,61.38
2023-03-27T04:07:50.090Z,61.27
2023-03-27T04:09:12.305Z,60.94
2023-03-27T04:10:48.720Z,59.86
2023-03-27T04:12:18.040Z,60.32
2023-03-27T04:13:31.352Z,60.53
2023-03-27T04:14:41.007Z,60.42
2023-03-27T04:16:02.090Z,60.34
2023-03-27T04:17:12.955Z,60.88
2023-03-27T04:18:15.428Z,60.86
2023-03-27T04:19:18.332Z,60.59
2023-03-27T04:20:27.811Z,61.02
2023-03-27T04:21:31.713Z,60.86
2023-03-27T04:22:38.215Z,60.88
2023-03-27T04:23:45.599Z,61.64
2023-03-27T04:24:50.805Z,61.58
2023-03-27T04:25:55.721Z,61.82
2023-03-27T04:27:05.676Z,61.46
2023-03-27T04:28:34.666Z,61.47
2023-03-27T04:29:51.858Z,61.73
2023-03-27T04:31:14.373Z,61.92
2023-03-27T04:32:39.696Z,62.15
2023-03-27T04:34:00.329Z,62.21
2023-03-27T04:35:21.670Z,62.48
2023-03-27T04:36:32.248Z,62.38
2023-03-27T04:37:55.027Z,61.47
2023-03-27T04:39:16.410Z,61.10
2023-03-27T04:40:18.824Z,60.75
2023-03-27T04:41:21.380Z,61.20
2023-03-27T04:42:23.822Z,61.15
2023-03-27T04:43:26.473Z,61.05
2023-03-27T04:44:29.733Z,60.71
2023-03-27T04:45:32.354Z,60.59
2023-03-27T04:46:34.644Z,60.53
2023-03-27T04:47:43.942Z,60.51
2023-03-27T04:48:46.472Z,60.61
2023-03-27T04:49:58.357Z,60.82
2023-03-27T04:51:03.139Z,60.64
2023-03-27T04:52:08.603Z,60.54
2023-03-27T04:53:12.828Z,60.17
2023-03-27T04:54:20.297Z,60.30
2023-03-27T04:55:25.774Z,60.28
2023-03-27T04:56:30.777Z,60.44
2023-03-27T04:57:34.075Z,60.09
2023-03-27T04:58:37.588Z,59.96
2023-03-27T04:59:45.633Z,60.30
2023-03-27T05:01:06.685Z,60.07
2023-03-27T05:02:31.162Z,59.97
2023-03-27T05:03:40.605Z,59.97
2023-03-27T05:04:48.856Z,60.28
2023-03-27T05:05:54.238Z,60.12
2023-03-27T05:06:58.067Z,59.89
2023-03-27T05:08:00.437Z,59.86
2023-03-27T05:09:03.434Z,60.01
2023-03-27T05:10:08.980Z,59.79
2023-03-27T05:11:11.957Z,60.27
2023-03-27T05:12:18.336Z,60.15
2023-03-27T05:13:28.739Z,60.12
2023-03-27T05:14:31.525Z,59.45
2023-03-27T05:15:33.977Z,59.10
2023-03-27T05:16:38.364Z,58.58
2023-03-27T05:17:46.000Z,58.75
2023-03-27T05:18:49.978Z,58.72
2023-03-27T05:19:52.668Z,58.91
2023-03-27T05:20:55.076Z,58.71
2023-03-27T05:21:57.575Z,58.33
2023-03-27T05:22:59.780Z,58.25
2023-03-27T05:24:03.913Z,58.18
2023-03-27T05:25:07.069Z,58.18
2023-03-27T05:26:09.586Z,58.26
2023-03-27T05:27:28.954Z,58.32
2023-03-27T05:28:32.202Z,58.25
2023-03-27T05:29:46.847Z,58.17
2023-03-27T05:30:50.188Z,58.47
2023-03-27T05:31:56.175Z,58.28
2023-03-27T05:33:18.310Z,59.01
2023-03-27T05:34:20.868Z,59.28
2023-03-27T05:35:28.589Z,59.25
2023-03-27T05:36:35.378Z,58.89
2023-03-27T05:37:38.520Z,60.03
2023-03-27T05:38:57.917Z,59.49
2023-03-27T05:40:07.197Z,59.20
2023-03-27T05:41:12.392Z,59.03
2023-03-27T05:42:20.461Z,59.14
2023-03-27T05:43:22.796Z,58.79
2023-03-27T05:44:25.777Z,58.79
2023-03-27T05:45:29.284Z,58.67
2023-03-27T05:46:31.888Z,59.00
2023-03-27T05:47:55.426Z,58.33
2023-03-27T05:48:59.574Z,58.58
2023-03-27T05:50:02.715Z,58.29
2023-03-27T05:51:06.014Z,57.70
2023-03-27T05:52:09.515Z,57.44
2023-03-27T05:53:12.095Z,57.69
2023-03-27T05:54:26.878Z,57.81
2023-03-27T05:55:34.137Z,57.91
2023-03-27T05:56:36.699Z,58.19
2023-03-27T05:57:41.470Z,58.66
2023-03-27T05:58:44.131Z,58.51
2023-03-27T05:59:46.557Z,57.71
2023-03-27T06:00:57.863Z,58.22
2023-03-27T06:02:00.655Z,58.19
2023-03-27T06:03:15.389Z,58.10
2023-03-27T06:04:38.169Z,57.96
2023-03-27T06:05:45.193Z,58.25
2023-03-27T06:06:47.365Z,58.07
2023-03-27T06:07:50.714Z,58.15
2023-03-27T06:08:53.513Z,57.88
2023-03-27T06:09:57.071Z,57.78
2023-03-27T06:11:10.262Z,58.06
2023-03-27T06:12:18.849Z,57.78
2023-03-27T06:13:21.880Z,57.48
2023-03-27T06:14:31.618Z,57.52
2023-03-27T06:15:57.660Z,57.00
2023-03-27T06:17:18.726Z,57.44
2023-03-27T06:18:28.117Z,57.24
2023-03-27T06:19:30.406Z,57.71
2023-03-27T06:20:35.269Z,57.55
2023-03-27T06:21:39.430Z,57.24
2023-03-27T06:22:46.739Z,57.08
2023-03-27T06:23:53.624Z,57.12
2023-03-27T06:24:56.039Z,56.87
2023-03-27T06:25:59.025Z,56.84
2023-03-27T06:27:03.853Z,56.73
2023-03-27T06:28:10.179Z,56.99
2023-03-27T06:29:18.306Z,56.58
2023-03-27T06:30:25.241Z,57.02
2023-03-27T06:31:58.322Z,56.80
2023-03-27T06:33:08.276Z,57.29
2023-03-27T06:34:11.054Z,57.28
2023-03-27T06:35:28.077Z,57.14
2023-03-27T06:36:34.902Z,56.28
2023-03-27T06:37:37.448Z,56.32
2023-03-27T06:38:40.619Z,56.41
2023-03-27T06:39:44.175Z,56.38
2023-03-27T06:40:46.851Z,55.74
2023-03-27T06:41:49.973Z,56.40
2023-03-27T06:43:01.212Z,56.78
2023-03-27T06:44:09.674Z,56.02
2023-03-27T06:45:37.545Z,56.23
2023-03-27T06:46:58.811Z,56.09
2023-03-27T06:48:22.031Z,55.49
2023-03-27T06:49:26.757Z,55.24
2023-03-27T06:50:31.630Z,55.37
2023-03-27T06:51:34.872Z,55.09
2023-03-27T06:52:38.484Z,54.71
2023-03-27T06:54:04.683Z,54.82
2023-03-27T06:55:14.894Z,54.99
2023-03-27T06:56:24.065Z,54.79
2023-03-27T06:57:50.411Z,54.88
2023-03-27T06:58:54.471Z,54.87
2023-03-27T07:00:11.658Z,54.87
2023-03-27T07:01:39.671Z,56.00
2023-03-27T07:03:10.390Z,55.95
2023-03-27T07:04:54.195Z,55.96
2023-03-27T07:06:09.674Z,56.29
2023-03-27T07:07:19.262Z,56.30
2023-03-27T07:08:25.102Z,56.03
2023-03-27T07:09:30.984Z,56.00
2023-03-27T07:10:38.911Z,56.42
2023-03-27T07:11:41.147Z,56.24
2023-03-27T07:12:46.594Z,56.61
2023-03-27T07:13:51.377Z,56.68
2023-03-27T07:15:00.870Z,57.35
2023-03-27T07:16:05.764Z,57.75
2023-03-27T07:17:09.597Z,58.16
2023-03-27T07:18:26.353Z,58.00
2023-03-27T07:19:30.679Z,58.05
2023-03-27T07:20:40.531Z,57.96
2023-03-27T07:21:47.580Z,57.86
2023-03-27T07:22:50.409Z,57.61
2023-03-27T07:24:02.328Z,57.81
2023-03-27T07:25:08.021Z,57.70
2023-03-27T07:26:16.421Z,57.81
2023-03-27T07:27:45.272Z,57.87
2023-03-27T07:28:47.939Z,57.23
2023-03-27T07:29:54.348Z,57.43
2023-03-27T07:30:57.584Z,57.29
2023-03-27T07:32:05.495Z,57.22
2023-03-27T07:33:15.968Z,55.95
2023-03-27T07:34:18.769Z,55.66
2023-03-27T07:35:42.511Z,55.00
2023-03-27T07:37:11.217Z,54.95
2023-03-27T07:38:22.293Z,54.71
2023-03-27T07:39:43.566Z,54.32
2023-03-27T07:40:46.591Z,53.88
2023-03-27T07:42:15.416Z,54.31
2023-03-27T07:43:50.361Z,54.14
2023-03-27T07:44:54.031Z,54.07
2023-03-27T07:45:56.480Z,54.13
2023-03-27T07:47:01.140Z,54.16
2023-03-27T07:48:12.114Z,53.77
2023-03-27T07:49:14.829Z,54.11
2023-03-27T07:50:21.614Z,54.28
2023-03-27T07:51:25.039Z,54.18
2023-03-27T07:52:27.401Z,54.05
2023-03-27T07:53:35.387Z,53.41
2023-03-27T07:54:48.153Z,52.94
2023-03-27T07:55:53.623Z,53.03
2023-03-27T07:56:57.227Z,52.34
2023-03-27T07:58:08.860Z,52.22
2023-03-27T07:59:13.169Z,52.50
2023-03-27T08:00:17.645Z,51.64
2023-03-27T08:01:25.839Z,51.54
2023-03-27T08:02:30.674Z,50.63
2023-03-27T08:03:35.035Z,50.56
2023-03-27T08:04:38.301Z,50.00
2023-03-27T08:05:42.512Z,48.98
2023-03-27T08:06:47.032Z,49.09
2023-03-27T08:07:55.057Z,48.50
2023-03-27T08:09:17.263Z,48.07
2023-03-27T08:10:21.434Z,48.10
2023-03-27T08:11:31.869Z,47.86
2023-03-27T08:12:34.932Z,48.05
2023-03-27T08:13:39.644Z,48.48
2023-03-27T08:14:45.815Z,48.58
2023-03-27T08:16:17.586Z,48.89
2023-03-27T08:17:22.060Z,49.00
2023-03-27T08:18:24.620Z,49.56
2023-03-27T08:19:28.461Z,49.92
2023-03-27T08:20:34.977Z,50.78
2023-03-27T08:21:37.323Z,51.83
2023-03-27T08:22:39.849Z,52.43
2023-03-27T08:24:17.167Z,54.25
2023-03-27T08:26:00.831Z,55.68
2023-03-27T08:27:07.585Z,56.24
2023-03-27T08:28:16.094Z,56.43
2023-03-27T08:29:18.276Z,56.65
2023-03-27T08:30:23.729Z,56.87
2023-03-27T08:31:30.697Z,56.72
2023-03-27T08:32:43.904Z,56.88
2023-03-27T08:33:46.882Z,56.79
2023-03-27T08:34:56.534Z,56.95
2023-03-27T08:35:59.776Z,57.01
2023-03-27T08:37:03.473Z,56.70
2023-03-27T08:38:25.832Z,56.83
2023-03-27T08:39:50.661Z,56.95
2023-03-27T08:40:58.949Z,56.33
2023-03-27T08:42:18.550Z,56.47
2023-03-27T08:43:30.680Z,56.21
2023-03-27T08:44:34.354Z,56.34
2023-03-27T08:45:53.622Z,56.42
2023-03-27T08:47:11.407Z,56.24
2023-03-27T08:48:26.773Z,56.13
2023-03-27T08:49:34.829Z,56.01
2023-03-27T08:50:51.942Z,55.90
2023-03-27T08:52:22.261Z,55.67
2023-03-27T08:53:41.041Z,55.58
2023-03-27T08:54:53.602Z,55.32
2023-03-27T08:56:01.249Z,54.44
2023-03-27T08:57:21.501Z,53.72
2023-03-27T08:58:26.814Z,53.23
2023-03-27T08:59:44.103Z,52.81
2023-03-27T09:01:04.714Z,51.49
2023-03-27T09:02:17.897Z,50.49
2023-03-27T09:03:32.910Z,49.19
2023-03-27T09:04:48.817Z,49.13
2023-03-27T09:05:57.805Z,48.40
2023-03-27T09:07:06.390Z,48.35
2023-03-27T09:08:42.439Z,47.69
2023-03-27T09:10:03.582Z,47.28
2023-03-27T09:11:29.840Z,47.50
2023-03-27T09:12:54.505Z,47.25
2023-03-27T09:13:57.840Z,46.29
2023-03-27T09:15:09.620Z,46.50
2023-03-27T09:16:21.706Z,46.67
2023-03-27T09:17:32.430Z,46.95
2023-03-27T09:19:23.232Z,46.93
2023-03-27T09:20:47.849Z,46.02
2023-03-27T09:22:13.781Z,44.94
2023-03-27T09:23:40.855Z,44.94
2023-03-27T09:25:08.336Z,45.14
2023-03-27T09:26:35.882Z,44.73
2023-03-27T09:27:41.543Z,44.86
2023-03-27T09:29:01.812Z,44.51
2023-03-27T09:30:11.711Z,44.59
2023-03-27T09:31:29.179Z,44.63
2023-03-27T09:32:33.535Z,44.57
2023-03-27T09:33:41.388Z,44.19
2023-03-27T09:34:45.072Z,45.15
2023-03-27T09:35:47.731Z,45.36
2023-03-27T09:36:50.861Z,45.19
2023-03-27T09:38:01.088Z,44.48
2023-03-27T09:39:08.078Z,44.93
2023-03-27T09:40:23.684Z,45.24
2023-03-27T09:41:34.566Z,45.01
2023-03-27T09:42:41.205Z,45.88
2023-03-27T09:44:03.625Z,48.70
2023-03-27T09:45:11.411Z,49.63
2023-03-27T09:46:39.019Z,50.47
2023-03-27T09:47:50.880Z,50.35
2023-03-27T09:49:13.838Z,51.40
2023-03-27T09:50:30.021Z,51.61
2023-03-27T09:51:46.834Z,51.85
2023-03-27T09:53:12.984Z,51.25
2023-03-27T09:54:22.643Z,50.79
2023-03-27T09:55:31.212Z,50.21
2023-03-27T09:56:42.930Z,49.71
2023-03-27T09:57:45.984Z,49.82
2023-03-27T09:58:49.416Z,48.98
2023-03-27T10:00:02.149Z,48.10
2023-03-27T10:01:09.706Z,48.06
2023-03-27T10:02:29.960Z,46.88
2023-03-27T10:03:39.141Z,46.56
2023-03-27T10:05:01.424Z,45.23
2023-03-27T10:06:11.620Z,45.80
2023-03-27T10:07:34.318Z,44.25
2023-03-27T10:08:47.787Z,43.71
2023-03-27T10:10:12.339Z,43.82
2023-03-27T10:11:35.856Z,44.05
2023-03-27T10:12:47.085Z,43.11
2023-03-27T10:13:52.085Z,42.49
2023-03-27T10:14:57.354Z,42.79
2023-03-27T10:16:06.075Z,43.39
2023-03-27T10:17:29.925Z,43.63
2023-03-27T10:18:44.189Z,43.35
2023-03-27T10:19:52.993Z,43.40
2023-03-27T10:20:58.619Z,42.78
2023-03-27T10:22:18.660Z,43.39
2023-03-27T10:23:29.955Z,43.47
2023-03-27T10:24:35.153Z,43.29
2023-03-27T10:26:01.679Z,42.86
2023-03-27T10:27:27.798Z,43.43
2023-03-27T10:29:20.249Z,43.87
2023-03-27T10:30:35.899Z,44.29
2023-03-27T10:32:05.988Z,44.16
2023-03-27T10:33:40.644Z,43.40
2023-03-27T10:34:54.541Z,43.35
2023-03-27T10:35:57.928Z,42.29
2023-03-27T10:37:23.045Z,42.49
2023-03-27T10:38:32.465Z,41.69
2023-03-27T10:39:56.152Z,41.21
2023-03-27T10:41:28.594Z,40.81
2023-03-27T10:42:33.958Z,40.92
2023-03-27T10:43:46.834Z,41.51
2023-03-27T10:44:49.662Z,42.38
2023-03-27T10:45:56.609Z,42.70
2023-03-27T10:46:59.329Z,43.21
2023-03-27T10:48:07.228Z,43.82
2023-03-27T10:49:10.577Z,44.49
2023-03-27T10:50:23.074Z,44.67
2023-03-27T10:52:13.510Z,45.31
2023-03-27T10:53:57.167Z,46.13
2023-03-27T10:55:17.447Z,46.94
2023-03-27T10:56:45.428Z,47.88
2023-03-27T10:57:54.192Z,50.71
2023-03-27T10:59:04.264Z,50.43
2023-03-27T11:00:26.691Z,50.13
2023-03-27T11:01:39.505Z,49.96
2023-03-27T11:03:05.709Z,49.76
2023-03-27T11:04:20.644Z,49.46
2023-03-27T11:05:30.849Z,49.40
2023-03-27T11:06:41.830Z,49.35
2023-03-27T11:07:54.321Z,46.63
2023-03-27T11:09:27.386Z,47.52
2023-03-27T11:10:42.822Z,49.28
2023-03-27T11:12:14.289Z,49.50
2023-03-27T11:13:32.551Z,50.72
2023-03-27T11:15:00.915Z,51.51
2023-03-27T11:16:33.101Z,50.48
2023-03-27T11:18:07.334Z,51.97
2023-03-27T11:19:45.332Z,52.06
2023-03-27T11:21:12.795Z,52.56
2023-03-27T11:22:34.630Z,51.34
2023-03-27T11:23:50.616Z,49.04
2023-03-27T11:25:21.308Z,47.48
2023-03-27T11:26:35.425Z,47.29
2023-03-27T11:27:45.676Z,46.92
2023-03-27T11:29:14.138Z,47.23
2023-03-27T11:30:34.557Z,47.32
2023-03-27T11:31:51.924Z,47.45
2023-03-27T11:33:40.537Z,47.50
2023-03-27T11:35:04.294Z,46.61
2023-03-27T11:36:45.603Z,45.05
2023-03-27T11:38:08.450Z,44.20
2023-03-27T11:39:29.218Z,43.43
2023-03-27T11:40:37.336Z,42.61
2023-03-27T11:41:41.579Z,42.83
2023-03-27T11:42:45.261Z,43.07
2023-03-27T11:43:49.295Z,43.38
2023-03-27T11:45:25.671Z,44.27
2023-03-27T11:47:08.527Z,44.36
2023-03-27T11:48:35.716Z,43.73
2023-03-27T11:49:59.881Z,43.22
2023-03-27T11:51:20.693Z,43.48
2023-03-27T11:52:50.262Z,43.44
2023-03-27T11:54:32.286Z,39.63
2023-03-27T11:55:57.290Z,37.08
2023-03-27T11:57:06.178Z,35.89
2023-03-27T11:58:34.782Z,36.10
2023-03-27T12:00:22.057Z,35.75
2023-03-27T12:01:32.249Z,36.65
2023-03-27T12:03:10.142Z,37.35
2023-03-27T12:04:53.488Z,37.15
2023-03-27T12:06:38.047Z,36.93
2023-03-27T12:08:02.134Z,37.39
2023-03-27T12:09:20.718Z,37.32
2023-03-27T12:10:53.739Z,37.59
2023-03-27T12:12:13.535Z,37.53
2023-03-27T12:13:42.749Z,37.01
2023-03-27T12:15:30.694Z,36.23
2023-03-27T12:17:01.135Z,36.20
2023-03-27T12:18:36.390Z,36.01
2023-03-27T12:19:48.528Z,36.12
2023-03-27T12:21:18.743Z,36.77
2023-03-27T12:22:58.763Z,37.36
2023-03-27T12:24:57.157Z,37.85
2023-03-27T12:26:45.734Z,37.86
2023-03-27T12:28:26.174Z,37.56
2023-03-27T12:29:58.081Z,37.29
2023-03-27T12:31:21.370Z,37.17
2023-03-27T12:32:42.874Z,37.14
2023-03-27T12:33:48.458Z,37.61
2023-03-27T12:35:03.462Z,37.34
2023-03-27T12:36:22.266Z,37.04
2023-03-27T12:37:31.092Z,36.36
2023-03-27T12:38:40.653Z,35.81
2023-03-27T12:39:54.191Z,35.66
2023-03-27T12:41:19.514Z,35.79
2023-03-27T12:42:47.841Z,35.87
2023-03-27T12:43:58.850Z,36.21
2023-03-27T12:45:26.889Z,36.06
2023-03-27T12:46:32.650Z,35.42
2023-03-27T12:47:35.487Z,35.05
2023-03-27T12:49:06.386Z,35.08
2023-03-27T12:50:26.340Z,35.49
2023-03-27T12:51:51.175Z,35.16
2023-03-27T12:53:40.050Z,35.46
2023-03-27T12:55:26.919Z,35.14
2023-03-27T12:56:52.282Z,35.12
2023-03-27T12:57:55.031Z,35.18
2023-03-27T12:59:29.216Z,35.11
2023-03-27T13:00:32.454Z,35.21
2023-03-27T13:03:27.582Z,34.91
2023-03-27T13:04:32.997Z,33.39
2023-03-27T13:05:51.078Z,33.28
2023-03-27T13:07:05.231Z,32.87
2023-03-27T13:08:35.044Z,32.75
2023-03-27T13:10:03.590Z,33.32
2023-03-27T13:11:17.246Z,33.94
2023-03-27T13:12:22.659Z,34.14
2023-03-27T13:13:54.368Z,35.02
2023-03-27T13:15:16.115Z,35.79
2023-03-27T13:16:23.272Z,36.09
2023-03-27T13:18:09.748Z,36.06
2023-03-27T13:19:33.623Z,35.99
2023-03-27T13:20:59.570Z,35.19
2023-03-27T13:22:11.143Z,35.60
2023-03-27T13:23:37.029Z,34.97
2023-03-27T13:24:59.926Z,34.81
2023-03-27T13:26:26.283Z,34.91
2023-03-27T13:27:40.086Z,36.07
2023-03-27T13:28:49.678Z,37.62
2023-03-27T13:29:53.770Z,38.44
2023-03-27T13:31:07.486Z,38.43
2023-03-27T13:32:40.863Z,38.08
2023-03-27T13:34:28.673Z,38.38
2023-03-27T13:35:51.333Z,38.04
2023-03-27T13:37:07.607Z,38.55
2023-03-27T13:38:13.508Z,38.83
2023-03-27T13:39:57.820Z,39.16
2023-03-27T13:41:36.167Z,39.52
2023-03-27T13:42:44.194Z,39.48
2023-03-27T13:43:46.929Z,39.90
2023-03-27T13:45:09.600Z,39.86
2023-03-27T13:46:24.795Z,39.96
2023-03-27T13:48:05.631Z,40.02
2023-03-27T13:49:40.284Z,40.48
2023-03-27T13:51:22.858Z,41.09
2023-03-27T13:52:32.000Z,41.60
2023-03-27T13:54:03.707Z,41.93
2023-03-27T13:55:28.100Z,42.26
2023-03-27T13:57:23.036Z,42.36
2023-03-27T13:58:36.054Z,42.24
2023-03-27T13:59:53.196Z,42.28
2023-03-27T14:01:49.699Z,42.60
2023-03-27T14:03:14.057Z,42.48
2023-03-27T14:04:44.751Z,42.64
2023-03-27T14:06:08.988Z,42.91
2023-03-27T14:08:00.931Z,45.51
2023-03-27T14:10:14.353Z,48.77
2023-03-27T14:11:45.254Z,50.02
2023-03-27T14:13:18.143Z,50.33
2023-03-27T14:15:02.034Z,50.40
2023-03-27T14:16:22.596Z,50.63
2023-03-27T14:17:53.549Z,51.10
2023-03-27T14:19:07.573Z,51.82
2023-03-27T14:20:24.206Z,51.75
2023-03-27T14:21:38.371Z,51.65
2023-03-27T14:22:48.849Z,52.27
2023-03-27T14:24:10.329Z,51.63
2023-03-27T14:25:21.608Z,51.68
2023-03-27T14:26:31.589Z,51.79
2023-03-27T14:27:34.701Z,51.58
2023-03-27T14:28:51.642Z,51.44
2023-03-27T14:30:07.604Z,51.94
2023-03-27T14:31:14.869Z,52.61
2023-03-27T14:32:27.415Z,52.57
2023-03-27T14:33:29.702Z,53.16
2023-03-27T14:34:47.266Z,53.99
2023-03-27T14:36:26.211Z,53.47
2023-03-27T14:37:35.981Z,53.13
2023-03-27T14:39:01.222Z,53.18
2023-03-27T14:40:23.102Z,53.22
2023-03-27T14:41:27.707Z,53.53
2023-03-27T14:42:34.098Z,53.70
2023-03-27T14:43:36.508Z,53.79
2023-03-27T14:44:38.764Z,54.48
2023-03-27T14:45:51.496Z,55.17
2023-03-27T14:47:00.829Z,55.90
2023-03-27T14:48:19.271Z,56.22
2023-03-27T14:49:28.835Z,56.15
2023-03-27T14:50:38.757Z,55.90
2023-03-27T14:51:48.258Z,56.07
2023-03-27T14:53:10.696Z,55.98
2023-03-27T14:54:52.286Z,56.20
2023-03-27T14:56:11.636Z,56.35
2023-03-27T14:57:57.619Z,55.56
2023-03-27T14:59:14.318Z,54.80
2023-03-27T15:00:34.470Z,55.24
2023-03-27T15:01:37.674Z,55.40
2023-03-27T15:02:42.297Z,54.68
2023-03-27T15:03:46.020Z,53.40
2023-03-27T15:04:50.181Z,52.97
2023-03-27T15:06:01.574Z,53.25
2023-03-27T15:07:19.765Z,52.88
2023-03-27T15:08:37.045Z,52.35
2023-03-27T15:10:20.706Z,52.13
2023-03-27T15:11:44.355Z,52.32
2023-03-27T15:12:53.009Z,52.37
2023-03-27T15:13:56.283Z,52.19
2023-03-27T15:15:06.491Z,53.00
2023-03-27T15:16:16.102Z,53.10
2023-03-27T15:17:20.118Z,53.40
2023-03-27T15:18:36.247Z,53.39
2023-03-27T15:19:53.852Z,53.12
2023-03-27T15:20:59.410Z,52.73
2023-03-27T15:22:12.076Z,52.68
2023-03-27T15:23:28.632Z,52.61
2023-03-27T15:25:03.650Z,52.47
2023-03-27T15:26:20.459Z,51.97
2023-03-27T15:27:30.695Z,51.71
2023-03-27T15:28:40.824Z,51.45
2023-03-27T15:29:59.596Z,51.47
2023-03-27T15:31:03.802Z,51.44
2023-03-27T15:32:11.224Z,51.08
2023-03-27T15:33:34.689Z,50.85
2023-03-27T15:34:46.195Z,50.20
2023-03-27T15:35:53.280Z,52.22
2023-03-27T15:37:00.153Z,54.87
2023-03-27T15:38:05.445Z,58.38
2023-03-27T15:39:11.427Z,59.71
2023-03-27T15:40:41.846Z,60.65
2023-03-27T15:41:49.708Z,62.38
2023-03-27T15:42:51.940Z,63.60
2023-03-27T15:44:03.648Z,64.64
2023-03-27T15:45:09.423Z,66.30
2023-03-27T15:46:16.407Z,67.21
2023-03-27T15:47:26.799Z,67.95
2023-03-27T15:48:40.519Z,68.37
2023-03-27T15:49:44.509Z,68.04
2023-03-27T15:50:56.989Z,67.34
2023-03-27T15:52:01.277Z,67.23